createdAt,value
2023-01-13T00:01:36.255Z,5.82
2023-01-13T00:04:05.481Z,5.65
2023-01-13T00:06:34.464Z,5.20
2023-01-13T00:09:03.432Z,5.22
2023-01-13T00:11:32.410Z,5.70
2023-01-13T00:14:03.017Z,5.43
2023-01-13T00:16:32.042Z,5.40
2023-01-13T00:19:01.048Z,5.32
2023-01-13T00:21:30.098Z,5.70
2023-01-13T00:23:59.106Z,5.90
2023-01-13T00:26:33.807Z,5.90
2023-01-13T00:29:05.979Z,5.60
2023-01-13T00:31:35.324Z,5.18
2023-01-13T00:34:04.576Z,5.43
2023-01-13T00:36:33.791Z,5.35
2023-01-13T00:39:03.376Z,6.18
2023-01-13T00:41:52.565Z,4.90
2023-01-13T00:44:21.997Z,5.28
2023-01-13T00:46:51.382Z,5.25
2023-01-13T00:49:20.433Z,5.97
2023-01-13T00:51:49.384Z,5.68
2023-01-13T00:54:18.780Z,5.90
2023-01-13T00:56:47.784Z,5.65
2023-01-13T00:59:16.746Z,5.85
2023-01-13T01:01:47.309Z,6.00
2023-01-13T01:04:16.335Z,4.53
2023-01-13T01:06:45.362Z,5.65
2023-01-13T01:09:15.943Z,5.35
2023-01-13T01:11:45.341Z,5.65
2023-01-13T01:14:15.488Z,5.35
2023-01-13T01:16:44.579Z,4.78
2023-01-13T01:19:14.959Z,5.95
2023-01-13T01:21:43.999Z,6.13
2023-01-13T01:24:13.103Z,5.75
2023-01-13T01:26:42.089Z,4.88
2023-01-13T01:29:14.821Z,5.50
2023-01-13T01:31:44.724Z,5.25
2023-01-13T01:34:15.322Z,6.47
2023-01-13T01:36:44.467Z,5.35
2023-01-13T01:39:13.739Z,5.38
2023-01-13T01:42:03.909Z,5.50
2023-01-13T01:44:55.454Z,5.50
2023-01-13T01:47:26.317Z,5.85
2023-01-13T01:49:58.157Z,4.90
2023-01-13T01:52:32.178Z,5.63
2023-01-13T01:55:06.551Z,5.88
2023-01-13T01:57:42.190Z,5.85
2023-01-13T02:00:12.566Z,5.88
2023-01-13T02:02:45.353Z,5.13
2023-01-13T02:05:16.049Z,6.10
2023-01-13T02:07:47.631Z,5.15
2023-01-13T02:10:19.629Z,6.00
2023-01-13T02:12:50.349Z,5.57
2023-01-13T02:15:22.560Z,5.95
2023-01-13T02:18:11.105Z,5.10
2023-01-13T02:21:24.255Z,6.07
2023-01-13T02:24:55.117Z,6.07
2023-01-13T02:28:08.502Z,5.70
2023-01-13T02:31:01.579Z,5.43
2023-01-13T02:33:49.334Z,5.95
2023-01-13T02:36:29.346Z,5.47
2023-01-13T02:39:02.138Z,5.43
2023-01-13T02:41:57.029Z,6.00
2023-01-13T02:44:30.357Z,5.97
2023-01-13T02:47:05.457Z,6.80
2023-01-13T02:52:12.303Z,5.53
2023-01-13T02:54:45.940Z,5.30
2023-01-13T02:57:17.465Z,5.32
2023-01-13T02:59:46.481Z,5.25
2023-01-13T03:02:20.407Z,6.32
2023-01-13T03:04:53.124Z,6.50
2023-01-13T03:07:42.048Z,6.20
2023-01-13T03:10:17.061Z,6.55
2023-01-13T03:12:56.194Z,6.15
2023-01-13T03:15:37.262Z,6.05
2023-01-13T03:18:15.755Z,6.20
2023-01-13T03:20:51.056Z,5.93
2023-01-13T03:23:25.991Z,4.82
2023-01-13T03:26:03.558Z,6.00
2023-01-13T03:28:38.105Z,4.82
2023-01-13T03:31:12.640Z,6.88
2023-01-13T03:33:47.777Z,4.22
2023-01-13T03:38:53.411Z,5.93
2023-01-13T03:41:28.576Z,6.23
2023-01-13T03:46:52.015Z,5.65
2023-01-13T03:49:25.720Z,4.93
2023-01-13T03:51:59.989Z,5.15
2023-01-13T03:54:31.344Z,4.90
2023-01-13T03:57:05.610Z,6.05
2023-01-13T03:59:38.339Z,5.10
2023-01-13T04:02:11.067Z,4.88
2023-01-13T04:04:47.554Z,4.60
2023-01-13T04:07:21.931Z,3.55
2023-01-13T04:09:53.650Z,5.25
2023-01-13T04:12:49.032Z,4.38
2023-01-13T04:15:18.769Z,5.65
2023-01-13T04:17:47.949Z,4.50
2023-01-13T04:20:19.124Z,4.93
2023-01-13T04:22:48.232Z,5.18
2023-01-13T04:25:17.332Z,4.95
2023-01-13T04:27:46.449Z,4.28
2023-01-13T04:30:15.695Z,5.05
2023-01-13T04:32:44.672Z,5.53
2023-01-13T04:35:13.695Z,5.22
2023-01-13T04:37:44.057Z,4.55
2023-01-13T04:40:13.630Z,5.72
2023-01-13T04:42:42.588Z,5.30
2023-01-13T04:45:12.351Z,6.38
2023-01-13T04:47:42.134Z,4.47
2023-01-13T04:50:12.493Z,5.63
2023-01-13T04:52:41.961Z,4.85
2023-01-13T04:55:12.523Z,4.80
2023-01-13T04:57:41.507Z,5.03
2023-01-13T05:00:13.513Z,5.55
2023-01-13T05:02:42.615Z,5.22
2023-01-13T05:05:11.665Z,5.70
2023-01-13T05:07:40.735Z,5.57
2023-01-13T05:10:11.216Z,4.70
2023-01-13T05:12:59.258Z,5.47
2023-01-13T05:15:45.798Z,4.97
2023-01-13T05:18:14.979Z,4.93
2023-01-13T05:20:44.131Z,4.68
2023-01-13T05:23:31.028Z,5.18
2023-01-13T05:26:00.051Z,4.82
2023-01-13T05:28:35.067Z,4.78
2023-01-13T05:33:34.981Z,4.40
2023-01-13T05:36:05.974Z,5.85
2023-01-13T05:38:35.012Z,3.85
2023-01-13T05:41:21.391Z,4.70
2023-01-13T05:43:51.876Z,5.03
2023-01-13T05:46:20.943Z,4.45
2023-01-13T05:48:49.941Z,4.55
2023-01-13T05:51:19.867Z,4.28
2023-01-13T05:53:48.823Z,4.68
2023-01-13T05:56:18.240Z,4.90
2023-01-13T05:58:47.237Z,5.00
2023-01-13T06:01:19.173Z,4.40
2023-01-13T06:03:49.305Z,4.57
2023-01-13T06:06:18.991Z,4.93
2023-01-13T06:08:48.263Z,4.65
2023-01-13T06:11:17.230Z,4.15
2023-01-13T06:13:46.502Z,4.75
2023-01-13T06:16:15.599Z,4.45
2023-01-13T06:18:46.102Z,4.13
2023-01-13T06:21:15.126Z,5.03
2023-01-13T06:23:44.166Z,4.78
2023-01-13T06:26:17.355Z,4.38
2023-01-13T06:28:46.505Z,4.50
2023-01-13T06:31:15.811Z,5.18
2023-01-13T06:33:51.067Z,2.67
2023-01-13T06:36:23.758Z,5.22
2023-01-13T06:38:56.512Z,3.67
2023-01-13T06:41:41.411Z,4.75
2023-01-13T06:44:10.468Z,4.88
2023-01-13T06:46:39.637Z,4.53
2023-01-13T06:49:10.240Z,3.83
2023-01-13T06:51:39.516Z,4.00
2023-01-13T06:54:08.957Z,4.13
2023-01-13T06:56:38.110Z,4.40
2023-01-13T06:59:07.181Z,3.38
2023-01-13T07:01:37.445Z,3.30
2023-01-13T07:04:06.744Z,3.42
2023-01-13T07:06:37.123Z,3.30
2023-01-13T07:09:06.975Z,3.70
2023-01-13T07:11:36.141Z,3.13
2023-01-13T07:14:22.906Z,3.83
2023-01-13T07:16:54.019Z,3.47
2023-01-13T07:19:24.559Z,3.63
2023-01-13T07:21:55.165Z,3.85
2023-01-13T07:24:24.219Z,4.20
2023-01-13T07:26:53.599Z,3.97
2023-01-13T07:29:22.581Z,3.20
2023-01-13T07:31:55.638Z,3.42
2023-01-13T07:34:24.659Z,3.08
2023-01-13T07:36:55.284Z,2.80
2023-01-13T07:39:24.310Z,3.30
2023-01-13T07:42:10.913Z,3.05
2023-01-13T07:44:41.258Z,3.13
2023-01-13T07:47:11.429Z,3.35
2023-01-13T07:49:40.493Z,3.60
2023-01-13T07:52:11.024Z,3.13
2023-01-13T07:54:41.308Z,4.45
2023-01-13T07:57:10.541Z,3.42
2023-01-13T07:59:39.634Z,3.67
2023-01-13T08:02:12.888Z,3.40
2023-01-13T08:04:42.216Z,2.85
2023-01-13T08:07:12.668Z,3.60
2023-01-13T08:09:41.672Z,3.15
2023-01-13T08:12:29.021Z,3.38
2023-01-13T08:14:58.915Z,4.00
2023-01-13T08:17:28.118Z,3.55
2023-01-13T08:19:57.370Z,4.18
2023-01-13T08:22:27.849Z,3.25
2023-01-13T08:24:59.183Z,3.60
2023-01-13T08:27:28.455Z,3.28
2023-01-13T08:29:57.410Z,3.70
2023-01-13T08:32:26.605Z,3.65
2023-01-13T08:34:55.588Z,4.00
2023-01-13T08:37:24.983Z,4.22
2023-01-13T08:39:55.373Z,3.17
2023-01-13T08:42:24.709Z,3.42
2023-01-13T08:44:54.667Z,3.60
2023-01-13T08:47:24.153Z,3.85
2023-01-13T08:49:53.408Z,3.72
2023-01-13T08:52:27.544Z,3.10
2023-01-13T08:54:57.979Z,2.45
2023-01-13T08:57:27.126Z,2.80
2023-01-13T08:59:56.290Z,3.20
2023-01-13T09:02:26.705Z,2.58
2023-01-13T09:04:55.998Z,2.90
2023-01-13T09:07:25.262Z,3.25
2023-01-13T09:09:56.329Z,2.95
2023-01-13T09:12:43.992Z,2.90
2023-01-13T09:15:13.721Z,2.65
2023-01-13T09:17:42.914Z,3.38
2023-01-13T09:20:13.950Z,3.45
2023-01-13T09:22:43.181Z,2.97
2023-01-13T09:25:13.011Z,2.35
2023-01-13T09:27:43.648Z,2.97
2023-01-13T09:30:13.372Z,3.00
2023-01-13T09:32:42.420Z,3.35
2023-01-13T09:35:10.590Z,3.13
2023-01-13T09:37:42.150Z,3.05
2023-01-13T09:40:18.354Z,3.17
2023-01-13T09:43:13.292Z,2.70
2023-01-13T09:45:50.479Z,2.00
2023-01-13T09:48:24.804Z,2.33
2023-01-13T09:51:04.801Z,2.40
2023-01-13T09:53:38.434Z,2.92
2023-01-13T09:56:09.748Z,2.70
2023-01-13T09:58:40.224Z,3.30
2023-01-13T10:01:19.699Z,3.03
2023-01-13T10:03:49.760Z,3.20
2023-01-13T10:06:22.451Z,2.80
2023-01-13T10:08:52.614Z,3.13
2023-01-13T10:11:41.280Z,2.70
2023-01-13T10:14:19.997Z,2.38
2023-01-13T10:16:59.730Z,2.45
2023-01-13T10:19:34.306Z,2.58
2023-01-13T10:22:16.987Z,3.42
2023-01-13T10:25:18.390Z,2.30
2023-01-13T10:27:50.248Z,3.30
2023-01-13T10:30:24.093Z,3.28
2023-01-13T10:32:57.610Z,2.70
2023-01-13T10:35:52.720Z,2.92
2023-01-13T10:38:23.613Z,2.30
2023-01-13T10:40:54.570Z,2.67
2023-01-13T10:43:24.414Z,2.65
2023-01-13T10:46:00.310Z,3.40
2023-01-13T10:48:38.981Z,2.90
2023-01-13T10:51:22.164Z,2.40
2023-01-13T10:53:58.240Z,2.33
2023-01-13T10:56:30.151Z,2.90
2023-01-13T10:59:16.348Z,2.70
2023-01-13T11:02:02.503Z,2.30
2023-01-13T11:04:36.663Z,2.50
2023-01-13T11:07:08.013Z,2.88
2023-01-13T11:09:37.098Z,2.20
2023-01-13T11:12:06.324Z,2.67
2023-01-13T11:14:40.722Z,3.25
2023-01-13T11:17:32.525Z,3.80
2023-01-13T11:20:13.905Z,2.97
2023-01-13T11:22:47.626Z,2.63
2023-01-13T11:25:22.838Z,2.67
2023-01-13T11:30:32.755Z,2.90
2023-01-13T11:33:12.287Z,2.42
2023-01-13T11:35:46.526Z,2.45
2023-01-13T11:38:28.738Z,2.83
2023-01-13T11:41:04.676Z,2.83
2023-01-13T11:43:39.216Z,3.35
2023-01-13T11:46:11.775Z,2.53
2023-01-13T11:48:44.399Z,2.72
2023-01-13T11:51:23.836Z,2.72
2023-01-13T11:54:14.076Z,2.55
2023-01-13T11:57:03.823Z,2.70
2023-01-13T11:59:55.064Z,2.83
2023-01-13T12:02:38.927Z,3.13
2023-01-13T12:05:16.348Z,3.40
2023-01-13T12:07:55.024Z,2.88
2023-01-13T12:10:40.513Z,2.97
2023-01-13T12:13:24.223Z,2.50
2023-01-13T12:16:19.491Z,3.55
2023-01-13T12:19:13.259Z,3.42
2023-01-13T12:21:58.052Z,3.95
2023-01-13T12:24:31.090Z,2.97
2023-01-13T12:27:08.072Z,2.83
2023-01-13T12:29:39.216Z,3.25
2023-01-13T12:32:13.015Z,3.15
2023-01-13T12:34:59.648Z,2.85
2023-01-13T12:37:38.854Z,2.78
2023-01-13T12:40:22.985Z,3.38
2023-01-13T12:43:14.351Z,3.90
2023-01-13T12:45:43.322Z,3.25
2023-01-13T12:48:50.994Z,3.88
2023-01-13T12:51:25.254Z,3.88
2023-01-13T12:53:56.784Z,3.57
2023-01-13T12:56:45.938Z,3.38
2023-01-13T12:59:50.708Z,2.95
2023-01-13T13:02:37.331Z,3.97
2023-01-13T13:05:51.822Z,3.63
2023-01-13T13:08:37.066Z,3.97
2023-01-13T13:11:53.039Z,3.17
2023-01-13T13:14:55.185Z,3.45
2023-01-13T13:17:46.533Z,3.38
2023-01-13T13:20:59.232Z,3.58
2023-01-13T13:23:40.262Z,3.38
2023-01-13T13:26:24.053Z,2.80
2023-01-13T13:29:13.355Z,3.83
2023-01-13T13:32:09.587Z,4.90
2023-01-13T13:34:49.733Z,4.85
2023-01-13T13:37:56.883Z,4.25
2023-01-13T13:40:43.682Z,4.30
2023-01-13T13:43:34.003Z,3.70
2023-01-13T13:46:20.309Z,4.63
2023-01-13T13:48:54.050Z,3.83
2023-01-13T13:51:29.457Z,3.80
2023-01-13T13:54:02.792Z,4.15
2023-01-13T13:56:38.035Z,3.90
2023-01-13T14:01:42.087Z,3.05
2023-01-13T14:04:18.733Z,3.28
2023-01-13T14:06:52.387Z,3.55
2023-01-13T14:09:23.111Z,3.75
2023-01-13T14:12:00.765Z,3.67
2023-01-13T14:14:31.676Z,5.18
2023-01-13T14:17:00.663Z,4.60
2023-01-13T14:19:34.247Z,3.95
2023-01-13T14:22:05.725Z,3.60
2023-01-13T14:24:47.054Z,4.47
2023-01-13T14:27:18.236Z,4.30
2023-01-13T14:29:48.995Z,4.43
2023-01-13T14:32:21.256Z,3.83
2023-01-13T14:34:52.223Z,3.80
2023-01-13T14:37:28.012Z,4.43
2023-01-13T14:39:57.414Z,4.05
2023-01-13T14:42:27.819Z,4.32
2023-01-13T14:44:58.751Z,3.63
2023-01-13T14:47:29.910Z,4.25
2023-01-13T14:50:03.047Z,3.67
2023-01-13T14:52:36.126Z,3.45
2023-01-13T14:55:28.566Z,4.05
2023-01-13T14:58:18.973Z,4.13
2023-01-13T15:00:49.752Z,3.75
2023-01-13T15:03:20.292Z,3.63
2023-01-13T15:05:51.399Z,4.50
2023-01-13T15:08:31.036Z,4.00
2023-01-13T15:11:01.688Z,3.78
2023-01-13T15:13:53.066Z,4.88
2023-01-13T15:16:26.341Z,3.83
2023-01-13T15:18:56.540Z,4.05
2023-01-13T15:21:26.389Z,4.43
2023-01-13T15:23:55.534Z,4.65
2023-01-13T15:26:45.073Z,4.30
2023-01-13T15:29:16.036Z,5.28
2023-01-13T15:31:47.092Z,4.88
2023-01-13T15:34:16.681Z,5.03
2023-01-13T15:36:45.842Z,5.00
2023-01-13T15:39:14.905Z,5.22
2023-01-13T15:42:00.956Z,5.60
2023-01-13T15:44:47.308Z,4.78
2023-01-13T15:47:18.062Z,6.05
2023-01-13T15:49:48.245Z,5.10
2023-01-13T15:52:22.266Z,4.68
2023-01-13T15:54:52.301Z,4.45
2023-01-13T15:57:23.976Z,4.63
2023-01-13T15:59:56.577Z,5.03
2023-01-13T16:02:27.327Z,4.68
2023-01-13T16:04:57.337Z,5.82
2023-01-13T16:07:27.039Z,4.85
2023-01-13T16:09:56.754Z,4.65
2023-01-13T16:12:27.025Z,4.40
2023-01-13T16:14:56.248Z,4.35
2023-01-13T16:17:30.221Z,5.32
2023-01-13T16:19:59.449Z,4.75
2023-01-13T16:22:28.779Z,4.60
2023-01-13T16:24:57.996Z,4.53
2023-01-13T16:27:27.548Z,4.60
2023-01-13T16:29:59.631Z,5.03
2023-01-13T16:32:30.945Z,5.28
2023-01-13T16:35:04.172Z,4.60
2023-01-13T16:37:33.564Z,4.63
2023-01-13T16:40:03.117Z,4.88
2023-01-13T16:42:32.834Z,4.15
2023-01-13T16:45:08.464Z,4.05
2023-01-13T16:47:40.117Z,5.20
2023-01-13T16:50:23.274Z,3.95
2023-01-13T16:52:52.469Z,3.92
2023-01-13T16:55:21.699Z,4.78
2023-01-13T16:57:51.103Z,4.35
2023-01-13T17:00:21.807Z,4.43
2023-01-13T17:02:52.631Z,4.97
2023-01-13T17:05:22.307Z,3.97
2023-01-13T17:07:51.410Z,4.65
2023-01-13T17:10:22.983Z,4.70
2023-01-13T17:12:52.970Z,4.63
2023-01-13T17:15:22.252Z,5.05
2023-01-13T17:17:55.376Z,4.40
2023-01-13T17:20:24.648Z,5.72
2023-01-13T17:22:58.324Z,4.97
2023-01-13T17:25:28.216Z,4.73
2023-01-13T17:27:58.038Z,4.25
2023-01-13T17:30:27.324Z,4.75
2023-01-13T17:32:58.822Z,4.75
2023-01-13T17:35:29.037Z,5.15
2023-01-13T17:37:58.436Z,4.75
2023-01-13T17:40:27.914Z,4.85
2023-01-13T17:42:57.601Z,6.18
2023-01-13T17:45:26.982Z,5.43
2023-01-13T17:47:59.765Z,3.88
2023-01-13T17:50:30.071Z,5.47
2023-01-13T17:52:59.564Z,5.18
2023-01-13T17:55:29.032Z,5.10
2023-01-13T17:57:58.072Z,4.57
2023-01-13T18:00:27.143Z,5.00
2023-01-13T18:02:56.526Z,5.28
2023-01-13T18:05:28.095Z,5.28
2023-01-13T18:08:01.189Z,4.72
2023-01-13T18:10:30.716Z,5.30
2023-01-13T18:13:00.093Z,4.88
2023-01-13T18:15:29.707Z,5.57
2023-01-13T18:17:58.933Z,5.25
2023-01-13T18:20:47.086Z,4.95
2023-01-13T18:23:36.722Z,4.85
2023-01-13T18:26:33.765Z,4.93
2023-01-13T18:29:05.865Z,5.38
2023-01-13T18:31:35.365Z,5.72
2023-01-13T18:34:04.741Z,4.57
2023-01-13T18:36:36.271Z,5.15
2023-01-13T18:39:06.992Z,5.50
2023-01-13T18:41:53.737Z,5.35
2023-01-13T18:44:24.044Z,5.43
2023-01-13T18:46:53.535Z,5.00
2023-01-13T18:49:23.190Z,4.22
2023-01-13T18:51:55.757Z,5.60
2023-01-13T18:54:25.590Z,5.07
2023-01-13T18:56:55.262Z,4.65
2023-01-13T18:59:26.018Z,5.13
2023-01-13T19:01:55.517Z,4.90
2023-01-13T19:04:25.425Z,5.85
2023-01-13T19:07:00.917Z,4.90
2023-01-13T19:09:31.075Z,4.68
2023-01-13T19:12:01.392Z,5.82
2023-01-13T19:14:38.728Z,4.75
2023-01-13T19:17:12.810Z,4.57
2023-01-13T19:19:43.903Z,4.88
2023-01-13T19:22:17.234Z,4.85
2023-01-13T19:24:46.380Z,5.15
2023-01-13T19:27:17.176Z,5.75
2023-01-13T19:29:52.224Z,5.22
2023-01-13T19:32:23.229Z,5.30
2023-01-13T19:34:53.769Z,4.88
2023-01-13T19:37:30.457Z,4.70
2023-01-13T19:40:00.829Z,4.70
2023-01-13T19:42:47.869Z,5.30
2023-01-13T19:45:27.472Z,4.72
2023-01-13T19:47:57.482Z,5.35
2023-01-13T19:50:27.157Z,4.97
2023-01-13T19:52:58.795Z,4.32
2023-01-13T19:55:28.600Z,4.75
2023-01-13T19:57:58.598Z,5.45
2023-01-13T20:00:28.131Z,5.45
2023-01-13T20:03:03.297Z,5.15
2023-01-13T20:08:03.511Z,4.50
2023-01-13T20:10:33.050Z,4.55
2023-01-13T20:13:02.481Z,5.72
2023-01-13T20:15:32.190Z,5.07
2023-01-13T20:18:01.811Z,5.00
2023-01-13T20:20:31.212Z,5.03
2023-01-13T20:23:00.582Z,4.80
2023-01-13T20:25:31.535Z,5.28
2023-01-13T20:28:02.347Z,4.85
2023-01-13T20:30:31.836Z,3.70
2023-01-13T20:33:01.148Z,4.65
2023-01-13T20:35:30.538Z,4.35
2023-01-13T20:37:59.773Z,3.58
2023-01-13T20:40:30.363Z,3.92
2023-01-13T20:42:58.643Z,4.15
2023-01-13T20:45:27.940Z,4.53
2023-01-13T20:47:57.209Z,4.53
2023-01-13T20:50:26.251Z,4.45
2023-01-13T20:52:57.430Z,4.07
2023-01-13T20:55:26.710Z,4.38
2023-01-13T20:57:58.297Z,4.30
2023-01-13T21:00:29.299Z,4.18
2023-01-13T21:02:59.754Z,3.97
2023-01-13T21:05:29.757Z,4.20
2023-01-13T21:07:58.770Z,4.22
2023-01-13T21:10:27.891Z,4.32
2023-01-13T21:13:15.924Z,3.90
2023-01-13T21:15:48.507Z,4.40
2023-01-13T21:18:35.061Z,4.50
2023-01-13T21:21:12.557Z,4.15
2023-01-13T21:23:42.758Z,3.67
2023-01-13T21:26:12.710Z,3.70
2023-01-13T21:28:43.099Z,4.03
2023-01-13T21:31:12.435Z,4.63
2023-01-13T21:33:41.670Z,5.53
2023-01-13T21:36:14.302Z,4.40
2023-01-13T21:38:43.524Z,4.03
2023-01-13T21:41:14.541Z,4.70
2023-01-13T21:44:02.432Z,4.20
2023-01-13T21:46:48.611Z,4.90
2023-01-13T21:49:17.588Z,4.78
2023-01-13T21:51:46.635Z,4.43
2023-01-13T21:54:15.637Z,4.85
2023-01-13T21:56:44.714Z,3.92
2023-01-13T21:59:15.205Z,4.07
2023-01-13T22:01:57.123Z,4.93
2023-01-13T22:04:34.162Z,4.15
2023-01-13T22:07:04.910Z,4.50
2023-01-13T22:09:34.068Z,3.90
2023-01-13T22:12:02.964Z,4.60
2023-01-13T22:14:33.388Z,4.90
2023-01-13T22:17:04.017Z,4.82
2023-01-13T22:19:32.958Z,4.93
2023-01-13T22:22:01.853Z,5.03
2023-01-13T22:24:30.911Z,5.68
2023-01-13T22:26:59.916Z,5.03
2023-01-13T22:29:28.973Z,4.93
2023-01-13T22:32:00.004Z,5.40
2023-01-13T22:34:29.071Z,4.78
2023-01-13T22:36:58.034Z,4.93
2023-01-13T22:39:27.074Z,5.63
2023-01-13T22:41:56.235Z,6.28
2023-01-13T22:44:25.717Z,5.70
2023-01-13T22:46:54.782Z,6.75
2023-01-13T22:49:25.219Z,5.75
2023-01-13T22:51:54.525Z,5.50
2023-01-13T22:54:23.802Z,5.82
2023-01-13T22:56:52.839Z,5.57
2023-01-13T22:59:22.631Z,4.75
2023-01-13T23:01:51.663Z,5.43
2023-01-13T23:04:20.802Z,6.32
2023-01-13T23:06:51.209Z,6.22
2023-01-13T23:09:20.188Z,6.55
2023-01-13T23:11:49.294Z,5.47
2023-01-13T23:14:18.326Z,6.25
2023-01-13T23:16:48.168Z,5.90
2023-01-13T23:19:17.410Z,5.60
2023-01-13T23:21:46.594Z,6.75
2023-01-13T23:24:16.971Z,6.57
2023-01-13T23:26:46.174Z,6.85
2023-01-13T23:29:15.529Z,6.80
2023-01-13T23:31:44.498Z,7.18
2023-01-13T23:34:15.721Z,6.30
2023-01-13T23:36:44.751Z,6.63
2023-01-13T23:39:13.844Z,6.85
2023-01-13T23:41:44.206Z,6.97
2023-01-13T23:44:13.415Z,6.25
2023-01-13T23:46:42.459Z,6.90
2023-01-13T23:49:11.486Z,6.63
2023-01-13T23:51:40.443Z,6.97
2023-01-13T23:54:09.512Z,7.18
2023-01-13T23:56:40.357Z,8.05
2023-01-13T23:59:11.165Z,7.65
